Point Pleasant, Pennsylvania
Current Conditions -  °F | °C
As of 7:54 AM on Friday 28 Nov 2014 (Local Time) from KDYL Reporting Station
Overcast Overcast  
Wind Chill: 21°   Ceiling: 7500
Heat Index: 28°   Visibility: 10mi
Dew Point: 23°   Wind: 7mph
Humidity: 81%   Direction: 290°WNW
Pressure: 30.19"   Gusts: NA
Location:  40.42°N, 75.07°W
Report Text: KDYL 281254Z AUTO 29006KT 10SM SCT032 OVC075 M02/M05 A3019 RMK AO2 SLP230 T10221050 $
Loading
Personal Weather Stations






























Interactive Weather Map New forecast layout! Learn more

10-Day Weather Forecast

Advertisements
Track Severe Weather on mobile